Time;durP1;ratioP1;P1;durP2;ratioP2;P2;SDS_P1;SDS_P2;PMS_P1;PMS_P2;Temp;Humidity;BMP_temperature;BMP_pressure;BME280_temperature;BME280_humidity;BME280_pressure;Samples;Min_cycle;Max_cycle;Signal;HPM_P1;HPM_P2
2022/02/20 00:00:43;;;;;;;;;32.00;29.25;;;;;;;;5183316;27;12456;-76
2022/02/20 00:03:09;;;;;;;;;32.00;26.50;;;;;;;;5183483;27;13389;-78
2022/02/20 00:05:36;;;;;;;;;30.75;27.00;;;;;;;;5183629;27;8874;-78
2022/02/20 00:08:02;;;;;;;;;27.25;25.25;;;;;;;;5182735;27;11452;-78
2022/02/20 00:10:27;;;;;;;;;25.00;24.75;;;;;;;;5182548;27;13277;-78
2022/02/20 00:12:52;;;;;;;;;25.75;25.25;;;;;;;;5182932;27;10541;-78
2022/02/20 00:15:17;;;;;;;;;25.50;23.50;;;;;;;;5182641;27;9509;-78
2022/02/20 00:17:43;;;;;;;;;26.50;24.75;;;;;;;;5183175;27;10349;-76
2022/02/20 00:20:08;;;;;;;;;22.50;19.50;;;;;;;;5162975;27;13856;-76
2022/02/20 00:22:34;;;;;;;;;23.25;20.25;;;;;;;;5163835;27;14657;-76
2022/02/20 00:25:00;;;;;;;;;24.00;23.25;;;;;;;;5182983;27;12225;-77
2022/02/20 00:27:26;;;;;;;;;24.00;20.25;;;;;;;;5182453;27;10802;-77
2022/02/20 00:29:51;;;;;;;;;20.75;19.50;;;;;;;;5182335;27;11430;-76
2022/02/20 00:32:16;;;;;;;;;27.75;20.25;;;;;;;;5182263;27;12685;-76
2022/02/20 00:34:42;;;;;;;;;23.50;22.00;;;;;;;;5182539;27;12373;-76
2022/02/20 00:37:08;;;;;;;;;28.50;24.75;;;;;;;;5182467;27;11381;-76
2022/02/20 00:39:33;;;;;;;;;30.50;23.50;;;;;;;;5183348;27;11378;-76
2022/02/20 00:41:59;;;;;;;;;30.50;22.75;;;;;;;;5182849;27;13473;-76
2022/02/20 00:44:24;;;;;;;;;23.00;20.00;;;;;;;;5183012;27;8867;-76
2022/02/20 00:46:49;;;;;;;;;23.25;23.00;;;;;;;;5182803;27;13495;-76
2022/02/20 00:49:15;;;;;;;;;29.50;23.25;;;;;;;;5182569;27;9982;-77
2022/02/20 00:51:40;;;;;;;;;29.25;24.00;;;;;;;;5182243;27;11915;-76
2022/02/20 00:54:08;;;;;;;;;20.75;20.75;;;;;;;;5182604;27;10519;-76
2022/02/20 00:56:34;;;;;;;;;21.75;19.00;;;;;;;;5182497;27;11641;-76
2022/02/20 00:58:59;;;;;;;;;20.50;19.25;;;;;;;;5182032;27;12251;-77
2022/02/20 01:01:24;;;;;;;;;27.00;20.00;;;;;;;;5182542;27;11538;-76
2022/02/20 01:03:49;;;;;;;;;24.00;21.75;;;;;;;;5163113;27;14406;-77
2022/02/20 01:06:15;;;;;;;;;27.75;22.00;;;;;;;;5182442;27;12580;-77
2022/02/20 01:08:40;;;;;;;;;25.50;22.25;;;;;;;;5163267;27;12647;-77
2022/02/20 01:11:05;;;;;;;;;22.00;22.00;;;;;;;;5163033;27;13585;-77
2022/02/20 01:13:31;;;;;;;;;19.25;19.25;;;;;;;;5181996;27;11496;-77
2022/02/20 01:15:56;;;;;;;;;21.00;21.00;;;;;;;;5181842;27;13223;-78
2022/02/20 01:18:21;;;;;;;;;20.25;18.25;;;;;;;;5181653;27;13616;-78
2022/02/20 01:20:47;;;;;;;;;20.50;19.00;;;;;;;;5181788;27;12208;-78
2022/02/20 01:23:12;;;;;;;;;24.00;20.00;;;;;;;;5162852;27;10800;-77
2022/02/20 01:25:37;;;;;;;;;20.25;16.50;;;;;;;;5182200;27;11532;-77
2022/02/20 01:28:03;;;;;;;;;24.00;20.50;;;;;;;;5181830;27;12565;-78
2022/02/20 01:30:28;;;;;;;;;32.25;30.00;;;;;;;;5182064;27;11947;-77
2022/02/20 01:32:53;;;;;;;;;26.25;22.00;;;;;;;;5182031;27;13234;-76
2022/02/20 01:35:18;;;;;;;;;26.50;22.00;;;;;;;;5182028;27;10620;-77
2022/02/20 01:37:44;;;;;;;;;22.00;21.75;;;;;;;;5182416;27;8805;-76
2022/02/20 01:40:09;;;;;;;;;24.75;20.00;;;;;;;;5181606;27;11873;-77
2022/02/20 01:42:35;;;;;;;;;22.25;18.25;;;;;;;;5182268;27;11397;-77
2022/02/20 01:45:00;;;;;;;;;26.00;22.75;;;;;;;;5181452;27;12357;-76
2022/02/20 01:47:26;;;;;;;;;26.00;22.50;;;;;;;;5181425;27;12572;-76
2022/02/20 01:49:51;;;;;;;;;17.75;17.50;;;;;;;;5162456;27;9068;-76
2022/02/20 01:52:17;;;;;;;;;23.50;22.00;;;;;;;;5181290;27;12158;-76
2022/02/20 01:54:42;;;;;;;;;23.00;19.75;;;;;;;;5163037;27;13589;-76
2022/02/20 01:57:07;;;;;;;;;26.00;24.75;;;;;;;;5181403;27;12452;-76
2022/02/20 01:59:33;;;;;;;;;22.00;20.50;;;;;;;;5182109;27;9976;-77
2022/02/20 02:01:58;;;;;;;;;22.00;19.75;;;;;;;;5181935;27;11452;-77
2022/02/20 02:04:23;;;;;;;;;22.00;22.00;;;;;;;;5182083;27;10161;-75
2022/02/20 02:06:49;;;;;;;;;23.00;22.75;;;;;;;;5162698;27;12768;-76
2022/02/20 02:09:16;;;;;;;;;25.00;22.00;;;;;;;;5181855;27;11439;-77
2022/02/20 02:11:43;;;;;;;;;23.75;22.00;;;;;;;;5181693;27;11633;-77
2022/02/20 02:14:08;;;;;;;;;24.50;19.00;;;;;;;;5182192;27;11411;-78
2022/02/20 02:16:33;;;;;;;;;27.75;22.00;;;;;;;;5181678;27;11604;-77
2022/02/20 02:19:00;;;;;;;;;26.25;20.75;;;;;;;;5182383;27;11376;-77
2022/02/20 02:21:25;;;;;;;;;25.00;22.50;;;;;;;;5162827;27;13624;-77
2022/02/20 02:23:51;;;;;;;;;19.50;19.25;;;;;;;;5181164;27;11428;-77
2022/02/20 02:26:18;;;;;;;;;18.25;14.50;;;;;;;;5181036;27;13744;-78
2022/02/20 02:28:43;;;;;;;;;21.00;18.75;;;;;;;;5182419;27;11436;-77
2022/02/20 02:31:09;;;;;;;;;19.00;18.25;;;;;;;;5182405;27;13412;-76
2022/02/20 02:33:35;;;;;;;;;22.25;19.00;;;;;;;;5181429;27;12602;-76
2022/02/20 02:36:01;;;;;;;;;19.75;19.25;;;;;;;;5181412;27;15029;-76
2022/02/20 02:38:29;;;;;;;;;17.75;16.50;;;;;;;;5180603;27;13346;-77
2022/02/20 02:40:55;;;;;;;;;21.50;18.75;;;;;;;;5181761;27;11494;-77
2022/02/20 02:43:21;;;;;;;;;18.25;17.75;;;;;;;;5162259;27;13637;-76
2022/02/20 02:45:46;;;;;;;;;20.50;17.00;;;;;;;;5184475;27;12328;-76
2022/02/20 02:48:12;;;;;;;;;25.00;19.50;;;;;;;;5184892;27;13535;-76
2022/02/20 02:50:37;;;;;;;;;13.75;13.00;;;;;;;;5186081;27;12806;-78
2022/02/20 02:53:05;;;;;;;;;24.25;19.00;;;;;;;;5185519;27;13205;-85
2022/02/20 02:55:30;;;;;;;;;18.75;18.00;;;;;;;;5165548;27;13710;-86
2022/02/20 02:57:55;;;;;;;;;21.25;18.25;;;;;;;;5184025;27;11477;-86
2022/02/20 03:00:21;;;;;;;;;22.00;17.00;;;;;;;;5184611;27;14049;-83
2022/02/20 03:02:46;;;;;;;;;17.00;14.25;;;;;;;;5184786;27;11528;-79
2022/02/20 03:05:11;;;;;;;;;10.50;5.25;;;;;;;;5184176;27;13794;-88
2022/02/20 03:07:37;;;;;;;;;17.25;14.50;;;;;;;;5184124;27;22021;-79
2022/02/20 03:10:02;;;;;;;;;15.50;15.00;;;;;;;;5184450;27;21537;-83
2022/02/20 03:12:28;;;;;;;;;17.25;16.75;;;;;;;;5184884;27;11411;-80
2022/02/20 03:14:53;;;;;;;;;18.25;15.50;;;;;;;;5184850;27;12542;-80
2022/02/20 03:17:18;;;;;;;;;20.50;16.50;;;;;;;;5184302;27;11780;-83
2022/02/20 03:19:44;;;;;;;;;20.00;16.75;;;;;;;;5184165;27;12211;-82
2022/02/20 03:22:09;;;;;;;;;18.50;15.25;;;;;;;;5184043;27;8804;-82
2022/02/20 03:24:34;;;;;;;;;15.25;12.75;;;;;;;;5184174;27;12535;-81
2022/02/20 03:26:59;;;;;;;;;17.50;16.50;;;;;;;;5183672;27;10399;-80
2022/02/20 03:29:25;;;;;;;;;13.50;11.25;;;;;;;;5184294;27;11495;-82
2022/02/20 03:31:50;;;;;;;;;17.75;15.75;;;;;;;;5164299;27;13397;-81
2022/02/20 03:34:15;;;;;;;;;22.50;18.75;;;;;;;;5183573;27;10323;-80
2022/02/20 03:36:40;;;;;;;;;15.75;15.75;;;;;;;;5183856;27;12212;-82
2022/02/20 03:39:06;;;;;;;;;16.50;14.25;;;;;;;;5164198;27;14374;-82
2022/02/20 03:41:31;;;;;;;;;19.25;16.25;;;;;;;;5183617;27;10462;-81
2022/02/20 03:43:56;;;;;;;;;19.25;15.25;;;;;;;;5183627;27;10335;-83
2022/02/20 03:46:21;;;;;;;;;19.75;15.75;;;;;;;;5183462;27;8788;-81
2022/02/20 03:48:47;;;;;;;;;20.00;17.00;;;;;;;;5183304;27;8798;-80
2022/02/20 03:51:12;;;;;;;;;14.25;14.25;;;;;;;;5184035;27;13352;-81
2022/02/20 03:53:37;;;;;;;;;16.25;15.25;;;;;;;;5164763;27;15564;-82
2022/02/20 03:56:03;;;;;;;;;16.00;14.00;;;;;;;;5164947;27;11386;-81
2022/02/20 03:58:28;;;;;;;;;15.75;14.00;;;;;;;;5183582;27;10334;-83
2022/02/20 04:00:53;;;;;;;;;18.00;15.00;;;;;;;;5183503;27;9164;-77
2022/02/20 04:03:19;;;;;;;;;18.00;17.00;;;;;;;;5183896;27;10343;-77
2022/02/20 04:05:44;;;;;;;;;17.50;17.25;;;;;;;;5182579;27;8793;-77
2022/02/20 04:08:11;;;;;;;;;17.50;13.75;;;;;;;;5181811;27;11576;-77
2022/02/20 04:10:37;;;;;;;;;18.00;14.25;;;;;;;;5162685;27;9137;-77
2022/02/20 04:13:04;;;;;;;;;17.50;15.25;;;;;;;;5181910;27;12402;-76
2022/02/20 04:15:30;;;;;;;;;20.00;16.25;;;;;;;;5179121;27;10460;-75
2022/02/20 04:17:55;;;;;;;;;17.25;16.00;;;;;;;;5181312;27;12678;-75
2022/02/20 04:20:21;;;;;;;;;20.25;17.25;;;;;;;;5181522;27;13184;-76
2022/02/20 04:22:47;;;;;;;;;19.75;19.75;;;;;;;;5181191;27;13519;-76
2022/02/20 04:25:12;;;;;;;;;22.75;18.75;;;;;;;;5180693;27;12286;-77
2022/02/20 04:27:38;;;;;;;;;21.75;18.50;;;;;;;;5181400;27;10355;-76
2022/02/20 04:30:07;;;;;;;;;19.50;17.75;;;;;;;;5181837;27;11365;-75
2022/02/20 04:32:33;;;;;;;;;21.00;20.50;;;;;;;;5181805;27;13513;-77
2022/02/20 04:34:59;;;;;;;;;18.50;18.00;;;;;;;;5181304;27;13267;-77
2022/02/20 04:37:24;;;;;;;;;21.25;18.25;;;;;;;;5162392;27;14110;-75
2022/02/20 04:39:49;;;;;;;;;20.75;17.50;;;;;;;;5181718;27;13935;-75
2022/02/20 04:42:15;;;;;;;;;20.25;20.00;;;;;;;;5181442;27;11375;-83
2022/02/20 04:44:40;;;;;;;;;21.00;16.25;;;;;;;;5181716;27;12215;-80
2022/02/20 04:47:06;;;;;;;;;20.50;17.00;;;;;;;;5180441;27;13045;-80
2022/02/20 04:49:31;;;;;;;;;20.75;17.50;;;;;;;;5181080;27;12786;-81
2022/02/20 04:51:56;;;;;;;;;22.75;20.00;;;;;;;;5181816;27;8966;-88
2022/02/20 04:54:21;;;;;;;;;22.00;20.50;;;;;;;;5180772;27;12247;-80
2022/02/20 04:56:47;;;;;;;;;22.00;18.00;;;;;;;;5180767;27;9501;-79
2022/02/20 04:59:13;;;;;;;;;23.00;17.00;;;;;;;;5180541;27;11392;-77
2022/02/20 05:01:38;;;;;;;;;23.00;19.50;;;;;;;;5181635;27;9193;-76
2022/02/20 05:04:04;;;;;;;;;21.75;17.00;;;;;;;;5162892;27;12058;-75
2022/02/20 05:06:30;;;;;;;;;17.00;16.75;;;;;;;;5180644;27;11370;-77
2022/02/20 05:08:55;;;;;;;;;20.75;14.00;;;;;;;;5180849;27;13225;-77
2022/02/20 05:11:21;;;;;;;;;23.50;19.00;;;;;;;;5180586;27;13537;-75
2022/02/20 05:13:46;;;;;;;;;18.25;17.50;;;;;;;;5180627;27;10536;-76
2022/02/20 05:16:11;;;;;;;;;20.25;18.50;;;;;;;;5179789;27;13193;-76
2022/02/20 05:18:39;;;;;;;;;22.00;20.50;;;;;;;;5180655;27;10394;-76
2022/02/20 05:21:07;;;;;;;;;23.00;17.00;;;;;;;;5180712;27;11628;-74
2022/02/20 05:23:32;;;;;;;;;18.50;18.50;;;;;;;;5177655;27;12354;-78
2022/02/20 05:25:59;;;;;;;;;25.50;17.75;;;;;;;;5180920;27;14795;-74
2022/02/20 05:28:25;;;;;;;;;20.00;20.00;;;;;;;;5180524;27;13806;-75
2022/02/20 05:30:50;;;;;;;;;17.00;14.50;;;;;;;;5179942;27;12224;-76
2022/02/20 05:33:15;;;;;;;;;10.50;8.00;;;;;;;;5180696;27;13258;-76
2022/02/20 05:35:40;;;;;;;;;17.00;16.00;;;;;;;;5179990;27;21501;-76
2022/02/20 05:38:06;;;;;;;;;17.00;16.00;;;;;;;;5179984;27;21533;-74
2022/02/20 05:40:31;;;;;;;;;19.00;18.50;;;;;;;;5180255;27;8885;-74
2022/02/20 05:42:57;;;;;;;;;22.00;16.00;;;;;;;;5179663;27;12825;-76
2022/02/20 05:45:23;;;;;;;;;24.00;22.50;;;;;;;;5180985;27;13286;-78
2022/02/20 05:47:48;;;;;;;;;20.75;20.25;;;;;;;;5180605;27;13512;-76
2022/02/20 05:50:13;;;;;;;;;21.00;20.00;;;;;;;;5162677;27;12272;-74
2022/02/20 05:52:38;;;;;;;;;22.25;20.00;;;;;;;;5157847;27;13407;-74
2022/02/20 05:55:04;;;;;;;;;30.33;21.67;;;;;;;;5173724;27;8863;-73
2022/02/20 05:57:30;;;;;;;;;23.75;20.25;;;;;;;;5159763;27;13238;-73
2022/02/20 05:59:55;;;;;;;;;22.00;21.00;;;;;;;;5160158;27;13221;-73
2022/02/20 06:02:20;;;;;;;;;22.75;16.75;;;;;;;;5174345;27;11525;-73
2022/02/20 06:04:46;;;;;;;;;15.75;13.75;;;;;;;;5181376;27;13361;-84
2022/02/20 06:07:11;;;;;;;;;16.00;14.00;;;;;;;;5181746;27;12002;-83
2022/02/20 06:09:36;;;;;;;;;19.00;16.75;;;;;;;;5183528;27;11531;-79
2022/02/20 06:12:02;;;;;;;;;17.00;16.50;;;;;;;;5181808;27;11713;-86
2022/02/20 06:14:27;;;;;;;;;16.50;15.75;;;;;;;;5180771;27;11425;-82
2022/02/20 06:16:53;;;;;;;;;15.75;13.75;;;;;;;;5181171;27;11374;-77
2022/02/20 06:19:18;;;;;;;;;16.50;13.50;;;;;;;;5182944;27;12195;-78
2022/02/20 06:21:43;;;;;;;;;13.75;13.75;;;;;;;;5166440;27;13849;-77
2022/02/20 06:24:08;;;;;;;;;16.25;13.50;;;;;;;;5185593;27;12521;-78
2022/02/20 06:26:34;;;;;;;;;12.75;12.75;;;;;;;;5184196;27;11540;-78
2022/02/20 06:28:59;;;;;;;;;11.25;9.00;;;;;;;;5185156;27;11508;-77
2022/02/20 06:31:24;;;;;;;;;14.25;12.50;;;;;;;;5185507;27;21769;-77
2022/02/20 06:33:52;;;;;;;;;15.25;12.25;;;;;;;;5185202;27;21351;-81
2022/02/20 06:36:18;;;;;;;;;14.25;13.00;;;;;;;;5185209;27;12149;-78
2022/02/20 06:38:43;;;;;;;;;10.25;10.25;;;;;;;;5184514;27;11537;-76
2022/02/20 06:41:10;;;;;;;;;12.25;12.25;;;;;;;;5184525;27;12678;-76
2022/02/20 06:43:36;;;;;;;;;10.25;10.25;;;;;;;;5185207;27;8789;-76
2022/02/20 06:46:01;;;;;;;;;12.50;12.00;;;;;;;;5165657;27;11450;-76
2022/02/20 06:48:26;;;;;;;;;10.75;10.75;;;;;;;;5165481;27;12320;-82
2022/02/20 06:50:52;;;;;;;;;18.50;16.75;;;;;;;;5184962;27;12698;-77
2022/02/20 06:53:17;;;;;;;;;19.75;16.75;;;;;;;;5184513;27;11903;-77
2022/02/20 06:55:42;;;;;;;;;20.25;18.75;;;;;;;;5184757;27;10207;-77
2022/02/20 06:58:07;;;;;;;;;26.75;25.25;;;;;;;;5184096;27;11876;-80
2022/02/20 07:00:33;;;;;;;;;25.50;24.75;;;;;;;;5183777;27;11727;-81
2022/02/20 07:02:58;;;;;;;;;24.50;24.50;;;;;;;;5183064;27;10631;-77
2022/02/20 07:05:24;;;;;;;;;8.00;8.00;;;;;;;;5183925;27;11401;-77
2022/02/20 07:07:49;;;;;;;;;23.50;21.00;;;;;;;;5183000;27;22609;-77
2022/02/20 07:10:14;;;;;;;;;30.67;28.67;;;;;;;;5182622;27;22590;-77
2022/02/20 07:12:39;;;;;;;;;36.00;27.33;;;;;;;;5183482;27;13440;-78
2022/02/20 07:15:05;;;;;;;;;31.67;29.67;;;;;;;;5182992;27;12019;-78
2022/02/20 07:17:31;;;;;;;;;35.33;32.00;;;;;;;;5164872;27;11580;-78
2022/02/20 07:19:57;;;;;;;;;35.00;31.67;;;;;;;;5184011;27;12282;-78
2022/02/20 07:22:22;;;;;;;;;40.33;32.33;;;;;;;;5181630;27;10858;-79
2022/02/20 07:24:47;;;;;;;;;36.00;32.67;;;;;;;;5164228;27;15704;-80
2022/02/20 07:27:12;;;;;;;;;35.00;32.00;;;;;;;;5163869;27;15995;-79
2022/02/20 07:29:38;;;;;;;;;37.00;35.00;;;;;;;;5183103;27;11394;-78
2022/02/20 07:32:03;;;;;;;;;42.67;32.33;;;;;;;;5183005;27;8878;-77
2022/02/20 07:34:29;;;;;;;;;38.00;31.00;;;;;;;;5183023;27;13438;-77
2022/02/20 07:36:54;;;;;;;;;31.00;28.67;;;;;;;;5182950;27;14980;-79
2022/02/20 07:39:20;;;;;;;;;39.00;34.33;;;;;;;;5182639;27;12271;-80
2022/02/20 07:41:45;;;;;;;;;39.33;38.33;;;;;;;;5182161;27;12339;-86
2022/02/20 07:44:11;;;;;;;;;40.00;32.00;;;;;;;;5183400;27;9540;-85
2022/02/20 07:46:36;;;;;;;;;41.33;33.67;;;;;;;;5183745;27;13246;-84
2022/02/20 07:49:02;;;;;;;;;33.33;32.00;;;;;;;;5164639;27;13720;-84
2022/02/20 07:51:28;;;;;;;;;50.00;40.33;;;;;;;;5183144;27;14597;-81
2022/02/20 07:53:54;;;;;;;;;39.33;37.00;;;;;;;;5182821;27;14602;-81
2022/02/20 07:56:19;;;;;;;;;45.67;41.67;;;;;;;;5182925;27;13253;-80
2022/02/20 07:58:45;;;;;;;;;46.67;40.67;;;;;;;;5163965;27;13893;-77
2022/02/20 08:01:10;;;;;;;;;48.33;39.33;;;;;;;;5183117;27;8790;-78
2022/02/20 08:03:36;;;;;;;;;47.00;42.33;;;;;;;;5180739;27;12223;-80
2022/02/20 08:06:03;;;;;;;;;40.50;38.75;;;;;;;;5182313;27;11447;-82
2022/02/20 08:08:29;;;;;;;;;45.75;39.25;;;;;;;;5184527;27;11823;-85
2022/02/20 08:10:54;;;;;;;;;43.50;39.75;;;;;;;;5183261;27;11478;-82
2022/02/20 08:13:19;;;;;;;;;44.25;39.75;;;;;;;;5182796;27;10555;-82
2022/02/20 08:15:45;;;;;;;;;42.25;36.25;;;;;;;;5183981;27;8872;-85
2022/02/20 08:18:10;;;;;;;;;40.00;36.00;;;;;;;;5165023;27;12376;-81
2022/02/20 08:20:35;;;;;;;;;22.00;18.00;;;;;;;;5188967;27;11390;-84
2022/02/20 08:23:00;;;;;;;;;43.75;36.25;;;;;;;;5190920;27;10600;-85
2022/02/20 08:25:26;;;;;;;;;37.00;33.50;;;;;;;;5179027;27;13508;-80
2022/02/20 08:27:51;;;;;;;;;35.25;29.75;;;;;;;;5182144;27;13244;-83
2022/02/20 08:30:16;;;;;;;;;33.75;32.25;;;;;;;;5185335;27;12201;-84
2022/02/20 08:32:42;;;;;;;;;38.25;34.00;;;;;;;;5185422;27;11423;-80
2022/02/20 08:35:08;;;;;;;;;33.25;31.75;;;;;;;;5184860;27;12876;-82
2022/02/20 08:37:42;;;;;;;;;32.75;30.00;;;;;;;;5186297;27;12646;-81
2022/02/20 08:40:08;;;;;;;;;33.00;30.75;;;;;;;;5166385;27;11859;-86
2022/02/20 08:42:33;;;;;;;;;32.25;29.00;;;;;;;;5182683;27;11472;-86
2022/02/20 08:44:59;;;;;;;;;41.75;36.25;;;;;;;;5163221;27;12550;-80
2022/02/20 08:47:24;;;;;;;;;35.25;32.50;;;;;;;;5163748;27;14162;-82
2022/02/20 08:49:49;;;;;;;;;35.75;31.75;;;;;;;;5182976;27;13404;-81
2022/02/20 08:52:15;;;;;;;;;34.75;32.00;;;;;;;;5182568;27;11408;-81
2022/02/20 08:54:40;;;;;;;;;41.00;36.75;;;;;;;;5183221;27;12038;-78
2022/02/20 08:57:08;;;;;;;;;40.25;36.00;;;;;;;;5182086;27;13262;-81
2022/02/20 08:59:34;;;;;;;;;32.50;32.50;;;;;;;;5183066;27;11468;-83
2022/02/20 09:01:59;;;;;;;;;35.25;33.00;;;;;;;;5182663;27;14098;-81
2022/02/20 09:04:24;;;;;;;;;41.75;37.50;;;;;;;;5182317;27;12222;-81
2022/02/20 09:06:51;;;;;;;;;43.75;37.50;;;;;;;;5162065;27;15311;-78
2022/02/20 09:09:16;;;;;;;;;46.00;37.00;;;;;;;;5183135;27;8892;-80
2022/02/20 09:11:43;;;;;;;;;37.00;33.75;;;;;;;;5183266;27;11743;-79
2022/02/20 09:14:08;;;;;;;;;35.25;32.25;;;;;;;;5182843;27;13306;-81
2022/02/20 09:16:33;;;;;;;;;22.50;20.00;;;;;;;;5182198;27;12243;-81
2022/02/20 09:19:03;;;;;;;;;22.50;21.50;;;;;;;;5164445;27;13750;-85
2022/02/20 09:21:29;;;;;;;;;27.50;26.25;;;;;;;;5181997;27;10282;-82
2022/02/20 09:23:54;;;;;;;;;29.50;28.50;;;;;;;;5162122;27;11811;-75
2022/02/20 09:26:19;;;;;;;;;26.00;23.75;;;;;;;;5181720;27;11878;-75
2022/02/20 09:28:44;;;;;;;;;25.75;24.75;;;;;;;;5182083;27;11601;-78
2022/02/20 09:31:10;;;;;;;;;31.50;27.75;;;;;;;;5182424;27;10320;-73
2022/02/20 09:33:35;;;;;;;;;24.75;24.75;;;;;;;;5161993;27;14064;-74
2022/02/20 09:36:00;;;;;;;;;22.50;20.00;;;;;;;;5161420;27;14284;-73
2022/02/20 09:38:26;;;;;;;;;24.25;23.25;;;;;;;;5180483;27;11580;-72
2022/02/20 09:40:52;;;;;;;;;24.75;22.75;;;;;;;;5180143;27;11730;-73
2022/02/20 09:43:18;;;;;;;;;26.00;25.50;;;;;;;;5180004;27;11457;-73
2022/02/20 09:45:44;;;;;;;;;24.00;22.25;;;;;;;;5180604;27;12005;-72
2022/02/20 09:48:09;;;;;;;;;19.25;18.25;;;;;;;;5161270;27;11971;-72
2022/02/20 09:50:35;;;;;;;;;17.00;16.33;;;;;;;;5180793;27;13657;-76
2022/02/20 09:53:00;;;;;;;;;14.00;14.00;;;;;;;;5176694;27;10526;-77
2022/02/20 09:55:25;;;;;;;;;17.67;17.67;;;;;;;;5162323;27;14012;-75
2022/02/20 09:57:51;;;;;;;;;18.00;18.00;;;;;;;;5179979;27;11332;-74
2022/02/20 10:00:17;;;;;;;;;18.67;18.67;;;;;;;;5180808;27;12032;-74
2022/02/20 10:02:44;;;;;;;;;18.50;17.75;;;;;;;;5181045;27;8794;-74
2022/02/20 10:05:19;;;;;;;;;23.75;20.75;;;;;;;;5180668;27;10617;-74
2022/02/20 10:07:45;;;;;;;;;19.50;16.25;;;;;;;;5178489;27;12449;-75
2022/02/20 10:10:19;;;;;;;;;4.40;4.40;;;;;;;;5161937;27;14359;-77
2022/02/20 10:12:45;;;;;;;;;9.40;8.00;;;;;;;;5179972;27;22703;-75
2022/02/20 10:15:30;;;;;;;;;8.80;8.80;;;;;;;;5181316;27;11675;-85
2022/02/20 10:18:01;;;;;;;;;10.80;10.20;;;;;;;;5179906;27;12657;-84
2022/02/20 10:20:27;;;;;;;;;11.20;9.80;;;;;;;;5180187;27;22437;-84
2022/02/20 10:22:52;;;;;;;;;11.00;11.00;;;;;;;;5179961;27;21509;-85
2022/02/20 10:25:17;;;;;;;;;11.67;11.67;;;;;;;;5179815;27;21486;-83
2022/02/20 10:27:50;;;;;;;;;10.00;10.00;;;;;;;;5161764;27;9007;-78
2022/02/20 10:30:19;;;;;;;;;9.75;9.75;;;;;;;;5180583;27;13031;-89
2022/02/20 10:32:44;;;;;;;;;9.75;9.75;;;;;;;;5162332;27;23215;-83
2022/02/20 10:35:19;;;;;;;;;11.00;10.33;;;;;;;;5182056;27;9532;-78
2022/02/20 10:37:44;;;;;;;;;11.00;10.00;;;;;;;;5181045;27;23687;-80
2022/02/20 10:40:24;;;;;;;;;15.00;11.67;;;;;;;;5181487;27;8935;-73
2022/02/20 10:42:49;;;;;;;;;13.75;12.50;;;;;;;;5179998;27;11812;-74
2022/02/20 10:45:22;;;;;;;;;13.00;11.00;;;;;;;;5161952;27;11767;-72
2022/02/20 10:47:47;;;;;;;;;13.75;12.50;;;;;;;;5180793;27;12149;-73
2022/02/20 10:50:19;;;;;;;;;14.25;9.75;;;;;;;;5179032;27;10677;-73
2022/02/20 10:52:46;;;;;;;;;11.33;11.00;;;;;;;;5175968;27;21778;-75
2022/02/20 10:55:12;;;;;;;;;11.00;11.00;;;;;;;;5179649;27;21792;-79
2022/02/20 10:57:38;;;;;;;;;14.00;12.25;;;;;;;;5179349;27;8813;-80
2022/02/20 11:00:12;;;;;;;;;15.00;14.25;;;;;;;;5177166;27;11524;-79
2022/02/20 11:02:39;;;;;;;;;12.00;11.25;;;;;;;;5179384;27;9188;-76
2022/02/20 11:05:04;;;;;;;;;13.50;13.50;;;;;;;;5177852;27;9106;-75
2022/02/20 11:07:30;;;;;;;;;14.67;14.67;;;;;;;;5183200;27;11367;-79
2022/02/20 11:09:55;;;;;;;;;9.67;9.67;;;;;;;;5178585;27;11731;-73
2022/02/20 11:12:21;;;;;;;;;10.67;10.00;;;;;;;;5176948;27;22593;-74
2022/02/20 11:14:47;;;;;;;;;12.00;12.00;;;;;;;;5182633;27;22281;-85
2022/02/20 11:17:14;;;;;;;;;11.50;10.50;;;;;;;;5182935;27;10670;-77
2022/02/20 11:19:41;;;;;;;;;14.00;12.25;;;;;;;;5182905;27;12772;-77
2022/02/20 11:22:07;;;;;;;;;11.00;11.00;;;;;;;;5182665;27;11488;-77
2022/02/20 11:24:36;;;;;;;;;10.75;10.00;;;;;;;;5182598;27;11495;-76
2022/02/20 11:27:03;;;;;;;;;14.50;12.50;;;;;;;;5178326;27;10471;-80
2022/02/20 11:29:30;;;;;;;;;14.00;13.75;;;;;;;;5183284;27;11696;-78
2022/02/20 11:31:56;;;;;;;;;10.25;7.50;;;;;;;;5183335;27;10492;-76
2022/02/20 11:34:22;;;;;;;;;14.00;12.50;;;;;;;;5183344;27;21404;-76
2022/02/20 11:36:54;;;;;;;;;14.67;14.67;;;;;;;;5182729;27;22726;-79
2022/02/20 11:39:20;;;;;;;;;15.67;15.67;;;;;;;;5181691;27;10976;-79
2022/02/20 11:42:06;;;;;;;;;14.00;11.67;;;;;;;;5183608;27;9293;-80
2022/02/20 11:44:44;;;;;;;;;16.00;12.25;;;;;;;;5167749;27;10673;-76
2022/02/20 11:47:09;;;;;;;;;9.75;8.75;;;;;;;;5183842;27;12848;-79
2022/02/20 11:49:34;;;;;;;;;13.00;13.00;;;;;;;;5183667;27;22607;-81
2022/02/20 11:51:59;;;;;;;;;12.25;10.25;;;;;;;;5183535;27;22623;-79
2022/02/20 11:54:25;;;;;;;;;11.25;10.50;;;;;;;;5183834;27;11676;-80
2022/02/20 11:57:09;;;;;;;;;12.75;11.00;;;;;;;;5182908;27;11343;-77
2022/02/20 11:59:34;;;;;;;;;10.75;10.75;;;;;;;;5183662;27;11665;-75
2022/02/20 12:02:09;;;;;;;;;10.00;9.00;;;;;;;;5163857;27;12190;-78
2022/02/20 12:04:55;;;;;;;;;10.25;10.25;;;;;;;;5181741;27;21805;-76
2022/02/20 12:07:28;;;;;;;;;11.00;9.00;;;;;;;;5182308;27;22708;-74
2022/02/20 12:10:12;;;;;;;;;14.25;11.25;;;;;;;;5182040;27;21939;-74
2022/02/20 12:12:37;;;;;;;;;12.25;9.50;;;;;;;;5182615;27;22016;-75
2022/02/20 12:15:21;;;;;;;;;9.50;9.00;;;;;;;;5182266;27;22577;-75
2022/02/20 12:18:16;;;;;;;;;9.25;9.25;;;;;;;;5181977;27;21428;-74
2022/02/20 12:20:46;;;;;;;;;10.00;10.00;;;;;;;;5089728;27;10620;-73
2022/02/20 12:23:24;;;;;;;;;9.50;9.50;;;;;;;;5181489;27;22566;-74
2022/02/20 12:25:50;;;;;;;;;12.00;10.75;;;;;;;;5181890;27;22326;-74
2022/02/20 12:28:15;;;;;;;;;10.50;8.25;;;;;;;;5181829;27;23628;-76
2022/02/20 12:30:40;;;;;;;;;10.50;9.25;;;;;;;;5182141;27;21311;-73
2022/02/20 12:33:05;;;;;;;;;10.50;9.25;;;;;;;;5182569;27;8916;-76
2022/02/20 12:35:31;;;;;;;;;10.50;9.25;;;;;;;;5183195;27;8809;-72
2022/02/20 12:37:57;;;;;;;;;14.75;12.75;;;;;;;;5182076;27;8832;-73
2022/02/20 12:40:22;;;;;;;;;9.75;9.75;;;;;;;;5179972;27;21616;-73
2022/02/20 12:42:49;;;;;;;;;11.75;10.25;;;;;;;;5176141;27;23571;-73
2022/02/20 12:45:19;;;;;;;;;9.00;9.00;;;;;;;;5180900;27;22629;-73
2022/02/20 12:47:47;;;;;;;;;10.75;9.25;;;;;;;;5178482;27;22395;-73
2022/02/20 12:50:14;;;;;;;;;9.50;8.50;;;;;;;;5181143;27;21468;-73
2022/02/20 12:52:39;;;;;;;;;12.00;9.50;;;;;;;;5180726;27;21456;-73
2022/02/20 12:55:06;;;;;;;;;10.25;6.75;;;;;;;;5177147;27;21495;-73
2022/02/20 12:57:37;;;;;;;;;8.25;7.25;;;;;;;;5180269;27;10411;-73
2022/02/20 13:00:20;;;;;;;;;10.25;8.75;;;;;;;;5178576;27;21870;-72
2022/02/20 13:02:47;;;;;;;;;10.75;9.25;;;;;;;;5178293;27;21484;-72
2022/02/20 13:05:17;;;;;;;;;7.25;6.50;;;;;;;;5181324;27;11387;-72
2022/02/20 13:07:47;;;;;;;;;8.00;7.00;;;;;;;;5167578;27;22533;-73
2022/02/20 13:10:17;;;;;;;;;5.00;5.00;;;;;;;;5165138;27;11406;-72
2022/02/20 13:12:59;;;;;;;;;8.50;6.00;;;;;;;;5180875;27;11300;-72
2022/02/20 13:15:26;;;;;;;;;6.00;5.50;;;;;;;;5161220;27;11324;-72
2022/02/20 13:18:03;;;;;;;;;5.00;5.00;;;;;;;;5141511;27;14549;-73
2022/02/20 13:20:33;;;;;;;;;8.75;6.00;;;;;;;;5160717;27;11749;-73
2022/02/20 13:22:59;;;;;;;;;7.50;5.00;;;;;;;;5160880;27;11326;-73
2022/02/20 13:25:30;;;;;;;;;10.00;8.50;;;;;;;;5160275;27;11428;-76
2022/02/20 13:27:59;;;;;;;;;13.75;12.25;;;;;;;;5159304;27;21567;-76
2022/02/20 13:30:28;;;;;;;;;6.75;3.25;;;;;;;;5160667;27;22610;-79
2022/02/20 13:32:54;;;;;;;;;6.25;6.25;;;;;;;;5160501;27;22543;-77
2022/02/20 13:35:30;;;;;;;;;7.25;5.75;;;;;;;;5158979;27;11423;-77
2022/02/20 13:37:55;;;;;;;;;7.00;5.25;;;;;;;;5160112;27;11424;-77
2022/02/20 13:40:20;;;;;;;;;5.50;5.50;;;;;;;;5160670;27;11997;-77
2022/02/20 13:43:18;;;;;;;;;5.00;5.00;;;;;;;;5160925;27;11482;-77
2022/02/20 13:45:52;;;;;;;;;5.00;5.00;;;;;;;;5056478;28;8786;-77
2022/02/20 13:48:23;;;;;;;;;1.00;1.00;;;;;;;;5057350;28;11195;-77
2022/02/20 13:50:49;;;;;;;;;3.75;3.00;;;;;;;;5056090;28;11504;-77
2022/02/20 13:53:14;;;;;;;;;5.00;4.00;;;;;;;;5039129;28;12363;-77
2022/02/20 13:55:39;;;;;;;;;5.00;4.25;;;;;;;;5114956;27;10344;-77
2022/02/20 13:58:12;;;;;;;;;7.25;7.25;;;;;;;;5160421;27;8919;-77
2022/02/20 14:00:37;;;;;;;;;8.00;6.25;;;;;;;;5161066;27;11545;-77
2022/02/20 14:03:02;;;;;;;;;7.00;7.00;;;;;;;;5160438;27;11464;-77
2022/02/20 14:05:28;;;;;;;;;5.50;5.50;;;;;;;;5160367;27;12490;-77
2022/02/20 14:08:07;;;;;;;;;3.25;3.25;;;;;;;;5160621;27;11426;-77
2022/02/20 14:10:32;;;;;;;;;6.50;4.00;;;;;;;;5140923;27;13419;-77
2022/02/20 14:12:57;;;;;;;;;4.00;4.00;;;;;;;;5159850;27;11500;-77
2022/02/20 14:15:30;;;;;;;;;5.00;4.25;;;;;;;;5160597;27;8906;-78
2022/02/20 14:17:58;;;;;;;;;5.75;5.75;;;;;;;;5160512;27;13148;-77